sensor_id;sensor_type;location;lat;lon;timestamp;P1;durP1;ratioP1;P2;durP2;ratioP2
52650;SDS011;38537;47.226;39.702;2023-04-06T00:01:44;22.48;;;6.57;;
52650;SDS011;38537;47.226;39.702;2023-04-06T00:04:13;13.52;;;5.07;;
52650;SDS011;38537;47.226;39.702;2023-04-06T00:06:40;24.00;;;4.93;;
52650;SDS011;38537;47.226;39.702;2023-04-06T00:09:08;29.50;;;6.90;;
52650;SDS011;38537;47.226;39.702;2023-04-06T00:11:35;19.08;;;6.38;;
52650;SDS011;38537;47.226;39.702;2023-04-06T00:14:03;17.73;;;6.32;;
52650;SDS011;38537;47.226;39.702;2023-04-06T00:16:30;20.50;;;6.30;;
52650;SDS011;38537;47.226;39.702;2023-04-06T00:18:57;22.35;;;6.40;;
52650;SDS011;38537;47.226;39.702;2023-04-06T00:21:24;17.80;;;6.03;;
52650;SDS011;38537;47.226;39.702;2023-04-06T00:23:52;17.80;;;5.68;;
52650;SDS011;38537;47.226;39.702;2023-04-06T00:26:19;22.63;;;6.65;;
52650;SDS011;38537;47.226;39.702;2023-04-06T00:28:47;22.20;;;6.60;;
52650;SDS011;38537;47.226;39.702;2023-04-06T00:31:16;21.20;;;6.72;;
52650;SDS011;38537;47.226;39.702;2023-04-06T00:33:44;21.67;;;6.63;;
52650;SDS011;38537;47.226;39.702;2023-04-06T00:36:11;23.13;;;6.53;;
52650;SDS011;38537;47.226;39.702;2023-04-06T00:38:39;20.85;;;6.78;;
52650;SDS011;38537;47.226;39.702;2023-04-06T00:41:06;14.98;;;5.75;;
52650;SDS011;38537;47.226;39.702;2023-04-06T00:43:33;23.63;;;7.25;;
52650;SDS011;38537;47.226;39.702;2023-04-06T00:46:00;17.63;;;6.97;;
52650;SDS011;38537;47.226;39.702;2023-04-06T00:48:28;17.35;;;6.28;;
52650;SDS011;38537;47.226;39.702;2023-04-06T00:50:58;26.13;;;7.93;;
52650;SDS011;38537;47.226;39.702;2023-04-06T00:53:26;23.63;;;8.07;;
52650;SDS011;38537;47.226;39.702;2023-04-06T00:55:56;25.02;;;7.55;;
52650;SDS011;38537;47.226;39.702;2023-04-06T00:58:23;24.52;;;7.45;;
52650;SDS011;38537;47.226;39.702;2023-04-06T01:00:59;18.92;;;7.07;;
52650;SDS011;38537;47.226;39.702;2023-04-06T01:03:27;20.13;;;7.50;;
52650;SDS011;38537;47.226;39.702;2023-04-06T01:05:55;19.30;;;7.13;;
52650;SDS011;38537;47.226;39.702;2023-04-06T01:08:31;19.73;;;7.05;;
52650;SDS011;38537;47.226;39.702;2023-04-06T01:11:12;21.77;;;6.90;;
52650;SDS011;38537;47.226;39.702;2023-04-06T01:13:39;19.40;;;6.47;;
52650;SDS011;38537;47.226;39.702;2023-04-06T01:16:14;20.10;;;7.20;;
52650;SDS011;38537;47.226;39.702;2023-04-06T01:19:17;22.17;;;7.13;;
52650;SDS011;38537;47.226;39.702;2023-04-06T01:21:49;19.02;;;7.25;;
52650;SDS011;38537;47.226;39.702;2023-04-06T01:24:29;17.50;;;6.60;;
52650;SDS011;38537;47.226;39.702;2023-04-06T01:27:14;18.08;;;6.97;;
52650;SDS011;38537;47.226;39.702;2023-04-06T01:30:02;15.63;;;6.30;;
52650;SDS011;38537;47.226;39.702;2023-04-06T01:32:44;17.85;;;6.13;;
52650;SDS011;38537;47.226;39.702;2023-04-06T01:35:15;16.77;;;6.55;;
52650;SDS011;38537;47.226;39.702;2023-04-06T01:37:52;18.88;;;6.75;;
52650;SDS011;38537;47.226;39.702;2023-04-06T01:40:25;22.23;;;7.38;;
52650;SDS011;38537;47.226;39.702;2023-04-06T01:42:53;16.88;;;6.68;;
52650;SDS011;38537;47.226;39.702;2023-04-06T01:45:29;15.45;;;6.57;;
52650;SDS011;38537;47.226;39.702;2023-04-06T01:48:02;16.50;;;7.05;;
52650;SDS011;38537;47.226;39.702;2023-04-06T01:50:30;17.85;;;6.50;;
52650;SDS011;38537;47.226;39.702;2023-04-06T01:52:58;16.25;;;6.53;;
52650;SDS011;38537;47.226;39.702;2023-04-06T01:55:27;13.93;;;6.72;;
52650;SDS011;38537;47.226;39.702;2023-04-06T01:58:30;14.00;;;6.68;;
52650;SDS011;38537;47.226;39.702;2023-04-06T02:00:57;19.67;;;7.28;;
52650;SDS011;38537;47.226;39.702;2023-04-06T02:03:28;20.92;;;7.50;;
52650;SDS011;38537;47.226;39.702;2023-04-06T02:06:04;15.98;;;7.25;;
52650;SDS011;38537;47.226;39.702;2023-04-06T02:08:36;17.25;;;7.20;;
52650;SDS011;38537;47.226;39.702;2023-04-06T02:11:03;17.20;;;6.63;;
52650;SDS011;38537;47.226;39.702;2023-04-06T02:13:40;15.73;;;6.95;;
52650;SDS011;38537;47.226;39.702;2023-04-06T02:16:09;17.88;;;7.55;;
52650;SDS011;38537;47.226;39.702;2023-04-06T02:18:37;20.70;;;8.05;;
52650;SDS011;38537;47.226;39.702;2023-04-06T02:21:04;18.40;;;8.20;;
52650;SDS011;38537;47.226;39.702;2023-04-06T02:23:31;16.85;;;8.07;;
52650;SDS011;38537;47.226;39.702;2023-04-06T02:25:59;24.20;;;8.48;;
52650;SDS011;38537;47.226;39.702;2023-04-06T02:28:26;16.52;;;7.63;;
52650;SDS011;38537;47.226;39.702;2023-04-06T02:30:53;19.13;;;9.93;;
52650;SDS011;38537;47.226;39.702;2023-04-06T02:33:25;19.92;;;8.93;;
52650;SDS011;38537;47.226;39.702;2023-04-06T02:35:58;15.52;;;7.85;;
52650;SDS011;38537;47.226;39.702;2023-04-06T02:38:26;17.85;;;8.10;;
52650;SDS011;38537;47.226;39.702;2023-04-06T02:40:53;19.13;;;8.30;;
52650;SDS011;38537;47.226;39.702;2023-04-06T02:43:23;18.27;;;8.15;;
52650;SDS011;38537;47.226;39.702;2023-04-06T02:46:00;17.92;;;8.32;;
52650;SDS011;38537;47.226;39.702;2023-04-06T02:48:31;13.27;;;6.95;;
52650;SDS011;38537;47.226;39.702;2023-04-06T02:50:59;14.55;;;7.63;;
52650;SDS011;38537;47.226;39.702;2023-04-06T02:53:26;20.05;;;9.23;;
52650;SDS011;38537;47.226;39.702;2023-04-06T02:55:55;17.88;;;8.75;;
52650;SDS011;38537;47.226;39.702;2023-04-06T02:58:29;18.17;;;9.18;;
52650;SDS011;38537;47.226;39.702;2023-04-06T03:00:57;20.63;;;9.52;;
52650;SDS011;38537;47.226;39.702;2023-04-06T03:03:24;18.25;;;10.23;;
52650;SDS011;38537;47.226;39.702;2023-04-06T03:05:52;19.10;;;10.38;;
52650;SDS011;38537;47.226;39.702;2023-04-06T03:08:25;15.38;;;9.38;;
52650;SDS011;38537;47.226;39.702;2023-04-06T03:10:53;19.70;;;9.77;;
52650;SDS011;38537;47.226;39.702;2023-04-06T03:13:28;14.57;;;8.35;;
52650;SDS011;38537;47.226;39.702;2023-04-06T03:15:56;16.00;;;9.82;;
52650;SDS011;38537;47.226;39.702;2023-04-06T03:18:25;10.90;;;7.28;;
52650;SDS011;38537;47.226;39.702;2023-04-06T03:20:55;12.13;;;6.70;;
52650;SDS011;38537;47.226;39.702;2023-04-06T03:23:31;9.68;;;6.50;;
52650;SDS011;38537;47.226;39.702;2023-04-06T03:26:01;9.35;;;6.55;;
52650;SDS011;38537;47.226;39.702;2023-04-06T03:28:28;11.35;;;7.13;;
52650;SDS011;38537;47.226;39.702;2023-04-06T03:30:59;9.88;;;6.97;;
52650;SDS011;38537;47.226;39.702;2023-04-06T03:34:04;11.43;;;7.53;;
52650;SDS011;38537;47.226;39.702;2023-04-06T03:36:34;9.23;;;7.35;;
52650;SDS011;38537;47.226;39.702;2023-04-06T03:39:03;14.38;;;8.05;;
52650;SDS011;38537;47.226;39.702;2023-04-06T03:41:34;10.85;;;7.63;;
52650;SDS011;38537;47.226;39.702;2023-04-06T03:44:34;9.38;;;7.40;;
52650;SDS011;38537;47.226;39.702;2023-04-06T03:47:02;9.60;;;7.45;;
52650;SDS011;38537;47.226;39.702;2023-04-06T03:49:30;10.75;;;8.13;;
52650;SDS011;38537;47.226;39.702;2023-04-06T03:52:01;9.95;;;7.85;;
52650;SDS011;38537;47.226;39.702;2023-04-06T03:54:29;10.32;;;7.15;;
52650;SDS011;38537;47.226;39.702;2023-04-06T03:56:56;10.25;;;6.68;;
52650;SDS011;38537;47.226;39.702;2023-04-06T03:59:26;13.93;;;9.40;;
52650;SDS011;38537;47.226;39.702;2023-04-06T04:01:54;13.27;;;9.20;;
52650;SDS011;38537;47.226;39.702;2023-04-06T04:04:22;14.80;;;9.80;;
52650;SDS011;38537;47.226;39.702;2023-04-06T04:06:50;12.55;;;9.52;;
52650;SDS011;38537;47.226;39.702;2023-04-06T04:09:18;13.55;;;8.75;;
52650;SDS011;38537;47.226;39.702;2023-04-06T04:11:45;12.00;;;9.30;;
52650;SDS011;38537;47.226;39.702;2023-04-06T04:14:13;15.18;;;9.38;;
52650;SDS011;38537;47.226;39.702;2023-04-06T04:16:41;16.75;;;9.48;;
52650;SDS011;38537;47.226;39.702;2023-04-06T04:19:08;14.07;;;9.77;;
52650;SDS011;38537;47.226;39.702;2023-04-06T04:21:42;16.73;;;9.82;;
52650;SDS011;38537;47.226;39.702;2023-04-06T04:24:16;16.35;;;10.20;;
52650;SDS011;38537;47.226;39.702;2023-04-06T04:26:43;17.33;;;10.43;;
52650;SDS011;38537;47.226;39.702;2023-04-06T04:29:11;17.25;;;10.77;;
52650;SDS011;38537;47.226;39.702;2023-04-06T04:31:38;15.75;;;9.70;;
52650;SDS011;38537;47.226;39.702;2023-04-06T04:34:13;16.20;;;10.40;;
52650;SDS011;38537;47.226;39.702;2023-04-06T04:36:41;14.52;;;10.40;;
52650;SDS011;38537;47.226;39.702;2023-04-06T04:39:14;12.45;;;9.38;;
52650;SDS011;38537;47.226;39.702;2023-04-06T04:41:46;14.02;;;10.77;;
52650;SDS011;38537;47.226;39.702;2023-04-06T04:44:13;15.00;;;10.32;;
52650;SDS011;38537;47.226;39.702;2023-04-06T04:46:41;12.35;;;9.75;;
52650;SDS011;38537;47.226;39.702;2023-04-06T04:49:11;13.32;;;9.77;;
52650;SDS011;38537;47.226;39.702;2023-04-06T04:51:40;13.88;;;10.32;;
52650;SDS011;38537;47.226;39.702;2023-04-06T04:54:11;14.25;;;11.23;;
52650;SDS011;38537;47.226;39.702;2023-04-06T04:56:40;18.58;;;11.10;;
52650;SDS011;38537;47.226;39.702;2023-04-06T04:59:27;10.73;;;8.05;;
52650;SDS011;38537;47.226;39.702;2023-04-06T05:02:03;17.00;;;11.13;;
52650;SDS011;38537;47.226;39.702;2023-04-06T05:04:41;15.98;;;11.20;;
52650;SDS011;38537;47.226;39.702;2023-04-06T05:07:13;17.20;;;10.48;;
52650;SDS011;38537;47.226;39.702;2023-04-06T05:09:42;16.52;;;10.40;;
52650;SDS011;38537;47.226;39.702;2023-04-06T05:12:11;17.00;;;10.55;;
52650;SDS011;38537;47.226;39.702;2023-04-06T05:14:49;15.60;;;10.68;;
52650;SDS011;38537;47.226;39.702;2023-04-06T05:17:18;15.80;;;9.82;;
52650;SDS011;38537;47.226;39.702;2023-04-06T05:19:46;14.77;;;10.50;;
52650;SDS011;38537;47.226;39.702;2023-04-06T05:22:19;14.48;;;10.38;;
52650;SDS011;38537;47.226;39.702;2023-04-06T05:24:55;12.68;;;9.48;;
52650;SDS011;38537;47.226;39.702;2023-04-06T05:27:23;14.10;;;10.25;;
52650;SDS011;38537;47.226;39.702;2023-04-06T05:29:52;13.55;;;10.07;;
52650;SDS011;38537;47.226;39.702;2023-04-06T05:32:25;11.57;;;8.80;;
52650;SDS011;38537;47.226;39.702;2023-04-06T05:34:54;14.25;;;9.27;;
52650;SDS011;38537;47.226;39.702;2023-04-06T05:37:23;13.93;;;9.38;;
52650;SDS011;38537;47.226;39.702;2023-04-06T05:39:50;16.15;;;9.55;;
52650;SDS011;38537;47.226;39.702;2023-04-06T05:42:19;9.75;;;6.78;;
52650;SDS011;38537;47.226;39.702;2023-04-06T05:44:51;10.52;;;7.00;;
52650;SDS011;38537;47.226;39.702;2023-04-06T05:47:19;12.05;;;7.28;;
52650;SDS011;38537;47.226;39.702;2023-04-06T05:49:52;7.47;;;5.60;;
52650;SDS011;38537;47.226;39.702;2023-04-06T05:52:39;15.77;;;9.00;;
52650;SDS011;38537;47.226;39.702;2023-04-06T05:55:11;14.55;;;8.25;;
52650;SDS011;38537;47.226;39.702;2023-04-06T05:57:42;19.77;;;9.02;;
52650;SDS011;38537;47.226;39.702;2023-04-06T06:00:13;15.77;;;9.25;;
52650;SDS011;38537;47.226;39.702;2023-04-06T06:02:51;17.48;;;7.65;;
52650;SDS011;38537;47.226;39.702;2023-04-06T06:05:22;17.92;;;9.80;;
52650;SDS011;38537;47.226;39.702;2023-04-06T06:07:50;21.17;;;11.02;;
52650;SDS011;38537;47.226;39.702;2023-04-06T06:10:20;18.60;;;10.30;;
52650;SDS011;38537;47.226;39.702;2023-04-06T06:12:48;17.02;;;9.80;;
52650;SDS011;38537;47.226;39.702;2023-04-06T06:15:16;16.77;;;9.82;;
52650;SDS011;38537;47.226;39.702;2023-04-06T06:17:46;17.25;;;9.63;;
52650;SDS011;38537;47.226;39.702;2023-04-06T06:20:14;18.40;;;10.15;;
52650;SDS011;38537;47.226;39.702;2023-04-06T06:22:42;13.57;;;8.07;;
52650;SDS011;38537;47.226;39.702;2023-04-06T06:25:15;15.55;;;8.52;;
52650;SDS011;38537;47.226;39.702;2023-04-06T06:27:45;13.15;;;9.20;;
52650;SDS011;38537;47.226;39.702;2023-04-06T06:30:14;13.90;;;9.45;;
52650;SDS011;38537;47.226;39.702;2023-04-06T06:32:43;13.93;;;7.80;;
52650;SDS011;38537;47.226;39.702;2023-04-06T06:35:10;13.35;;;8.07;;
52650;SDS011;38537;47.226;39.702;2023-04-06T06:37:38;15.77;;;8.32;;
52650;SDS011;38537;47.226;39.702;2023-04-06T06:40:10;13.82;;;8.68;;
52650;SDS011;38537;47.226;39.702;2023-04-06T06:42:41;13.43;;;8.55;;
52650;SDS011;38537;47.226;39.702;2023-04-06T06:45:18;12.88;;;8.30;;
52650;SDS011;38537;47.226;39.702;2023-04-06T06:47:46;11.80;;;7.38;;
52650;SDS011;38537;47.226;39.702;2023-04-06T06:50:14;10.98;;;6.50;;
52650;SDS011;38537;47.226;39.702;2023-04-06T06:52:44;11.57;;;7.93;;
52650;SDS011;38537;47.226;39.702;2023-04-06T06:55:13;12.07;;;7.50;;
52650;SDS011;38537;47.226;39.702;2023-04-06T06:57:42;9.77;;;6.30;;
52650;SDS011;38537;47.226;39.702;2023-04-06T07:00:10;10.35;;;7.47;;
52650;SDS011;38537;47.226;39.702;2023-04-06T07:02:41;8.88;;;6.85;;
52650;SDS011;38537;47.226;39.702;2023-04-06T07:05:13;12.55;;;9.30;;
52650;SDS011;38537;47.226;39.702;2023-04-06T07:07:54;13.02;;;9.82;;
52650;SDS011;38537;47.226;39.702;2023-04-06T07:10:22;9.70;;;6.63;;
52650;SDS011;38537;47.226;39.702;2023-04-06T07:12:49;10.43;;;6.28;;
52650;SDS011;38537;47.226;39.702;2023-04-06T07:15:16;15.48;;;7.47;;
52650;SDS011;38537;47.226;39.702;2023-04-06T07:17:44;9.43;;;6.78;;
52650;SDS011;38537;47.226;39.702;2023-04-06T07:20:12;10.82;;;6.45;;
52650;SDS011;38537;47.226;39.702;2023-04-06T07:22:42;8.45;;;5.28;;
52650;SDS011;38537;47.226;39.702;2023-04-06T07:25:11;7.85;;;4.90;;
52650;SDS011;38537;47.226;39.702;2023-04-06T07:27:41;9.82;;;5.97;;
52650;SDS011;38537;47.226;39.702;2023-04-06T07:30:10;7.07;;;4.43;;
52650;SDS011;38537;47.226;39.702;2023-04-06T07:32:38;6.75;;;3.40;;
52650;SDS011;38537;47.226;39.702;2023-04-06T07:35:05;7.45;;;4.25;;
52650;SDS011;38537;47.226;39.702;2023-04-06T07:37:32;8.23;;;4.03;;
52650;SDS011;38537;47.226;39.702;2023-04-06T07:40:00;7.43;;;4.15;;
52650;SDS011;38537;47.226;39.702;2023-04-06T07:42:29;7.53;;;4.00;;
52650;SDS011;38537;47.226;39.702;2023-04-06T07:44:56;9.50;;;4.22;;
52650;SDS011;38537;47.226;39.702;2023-04-06T07:47:24;16.55;;;6.78;;
52650;SDS011;38537;47.226;39.702;2023-04-06T07:49:51;8.80;;;5.22;;
52650;SDS011;38537;47.226;39.702;2023-04-06T07:52:19;6.50;;;4.20;;
52650;SDS011;38537;47.226;39.702;2023-04-06T07:54:47;8.38;;;3.80;;
52650;SDS011;38537;47.226;39.702;2023-04-06T07:57:16;7.03;;;4.07;;
52650;SDS011;38537;47.226;39.702;2023-04-06T07:59:44;9.52;;;4.20;;
52650;SDS011;38537;47.226;39.702;2023-04-06T08:02:11;6.10;;;3.83;;
52650;SDS011;38537;47.226;39.702;2023-04-06T08:04:39;7.60;;;3.40;;
52650;SDS011;38537;47.226;39.702;2023-04-06T08:07:06;11.60;;;3.30;;
52650;SDS011;38537;47.226;39.702;2023-04-06T08:09:33;5.55;;;2.88;;
52650;SDS011;38537;47.226;39.702;2023-04-06T08:12:04;4.30;;;2.83;;
52650;SDS011;38537;47.226;39.702;2023-04-06T08:14:31;7.43;;;3.55;;
52650;SDS011;38537;47.226;39.702;2023-04-06T08:16:58;4.18;;;3.22;;
52650;SDS011;38537;47.226;39.702;2023-04-06T08:19:25;6.10;;;3.30;;
52650;SDS011;38537;47.226;39.702;2023-04-06T08:21:53;10.93;;;5.70;;
52650;SDS011;38537;47.226;39.702;2023-04-06T08:24:20;11.48;;;6.55;;
52650;SDS011;38537;47.226;39.702;2023-04-06T08:26:48;10.82;;;6.88;;
52650;SDS011;38537;47.226;39.702;2023-04-06T08:29:17;8.48;;;5.63;;
52650;SDS011;38537;47.226;39.702;2023-04-06T08:31:45;12.85;;;7.10;;
52650;SDS011;38537;47.226;39.702;2023-04-06T08:34:12;8.95;;;6.90;;
52650;SDS011;38537;47.226;39.702;2023-04-06T08:36:40;13.00;;;7.10;;
52650;SDS011;38537;47.226;39.702;2023-04-06T08:39:08;12.48;;;6.63;;
52650;SDS011;38537;47.226;39.702;2023-04-06T08:41:36;10.90;;;6.50;;
52650;SDS011;38537;47.226;39.702;2023-04-06T08:44:03;13.52;;;6.75;;
52650;SDS011;38537;47.226;39.702;2023-04-06T08:46:32;11.57;;;6.60;;
52650;SDS011;38537;47.226;39.702;2023-04-06T08:49:00;7.68;;;6.80;;
52650;SDS011;38537;47.226;39.702;2023-04-06T08:51:29;12.95;;;7.13;;
52650;SDS011;38537;47.226;39.702;2023-04-06T08:53:57;10.73;;;6.03;;
52650;SDS011;38537;47.226;39.702;2023-04-06T08:56:26;11.95;;;7.68;;
52650;SDS011;38537;47.226;39.702;2023-04-06T08:58:54;5.90;;;4.93;;
52650;SDS011;38537;47.226;39.702;2023-04-06T09:01:25;11.50;;;7.32;;
52650;SDS011;38537;47.226;39.702;2023-04-06T09:03:58;12.00;;;7.57;;
52650;SDS011;38537;47.226;39.702;2023-04-06T09:06:27;11.43;;;7.00;;
52650;SDS011;38537;47.226;39.702;2023-04-06T09:08:54;11.25;;;6.50;;
52650;SDS011;38537;47.226;39.702;2023-04-06T09:11:22;9.88;;;4.53;;
52650;SDS011;38537;47.226;39.702;2023-04-06T09:16:18;9.40;;;5.03;;
52650;SDS011;38537;47.226;39.702;2023-04-06T09:18:45;5.60;;;4.80;;
52650;SDS011;38537;47.226;39.702;2023-04-06T09:21:18;7.47;;;4.57;;
52650;SDS011;38537;47.226;39.702;2023-04-06T09:23:59;10.68;;;5.10;;
52650;SDS011;38537;47.226;39.702;2023-04-06T09:26:27;8.48;;;4.40;;
52650;SDS011;38537;47.226;39.702;2023-04-06T09:28:56;10.77;;;5.28;;
52650;SDS011;38537;47.226;39.702;2023-04-06T09:31:25;12.93;;;4.28;;
52650;SDS011;38537;47.226;39.702;2023-04-06T09:33:57;6.88;;;4.10;;
52650;SDS011;38537;47.226;39.702;2023-04-06T09:36:34;13.93;;;4.80;;
52650;SDS011;38537;47.226;39.702;2023-04-06T09:39:07;9.75;;;4.38;;
52650;SDS011;38537;47.226;39.702;2023-04-06T09:41:35;7.15;;;4.72;;
52650;SDS011;38537;47.226;39.702;2023-04-06T09:44:07;5.82;;;3.85;;
52650;SDS011;38537;47.226;39.702;2023-04-06T09:46:39;6.22;;;3.60;;
52650;SDS011;38537;47.226;39.702;2023-04-06T09:49:24;8.35;;;4.20;;
52650;SDS011;38537;47.226;39.702;2023-04-06T09:52:04;4.35;;;3.75;;
52650;SDS011;38537;47.226;39.702;2023-04-06T09:54:34;7.18;;;4.30;;
52650;SDS011;38537;47.226;39.702;2023-04-06T09:57:25;7.38;;;3.80;;
52650;SDS011;38537;47.226;39.702;2023-04-06T10:08:10;7.63;;;5.32;;
52650;SDS011;38537;47.226;39.702;2023-04-06T10:10:39;6.38;;;4.60;;
52650;SDS011;38537;47.226;39.702;2023-04-06T10:13:07;12.50;;;5.05;;
52650;SDS011;38537;47.226;39.702;2023-04-06T10:15:37;10.23;;;5.88;;
52650;SDS011;38537;47.226;39.702;2023-04-06T10:18:06;10.55;;;5.40;;
52650;SDS011;38537;47.226;39.702;2023-04-06T10:20:42;8.50;;;5.38;;
52650;SDS011;38537;47.226;39.702;2023-04-06T10:23:15;7.60;;;4.35;;
52650;SDS011;38537;47.226;39.702;2023-04-06T10:25:53;6.53;;;5.03;;
52650;SDS011;38537;47.226;39.702;2023-04-06T10:28:21;10.40;;;4.30;;
52650;SDS011;38537;47.226;39.702;2023-04-06T10:30:49;8.70;;;4.90;;
52650;SDS011;38537;47.226;39.702;2023-04-06T10:33:23;10.57;;;5.27;;
52650;SDS011;38537;47.226;39.702;2023-04-06T10:35:51;9.13;;;5.07;;
52650;SDS011;38537;47.226;39.702;2023-04-06T10:38:19;9.70;;;5.55;;
52650;SDS011;38537;47.226;39.702;2023-04-06T10:40:51;7.20;;;4.60;;
52650;SDS011;38537;47.226;39.702;2023-04-06T10:43:18;7.47;;;4.65;;
52650;SDS011;38537;47.226;39.702;2023-04-06T10:45:55;7.65;;;4.15;;
52650;SDS011;38537;47.226;39.702;2023-04-06T10:48:23;10.90;;;4.50;;
52650;SDS011;38537;47.226;39.702;2023-04-06T10:50:52;9.10;;;4.28;;
52650;SDS011;38537;47.226;39.702;2023-04-06T10:53:23;7.15;;;4.13;;
52650;SDS011;38537;47.226;39.702;2023-04-06T10:55:55;8.60;;;3.63;;
52650;SDS011;38537;47.226;39.702;2023-04-06T10:58:26;5.40;;;3.38;;
52650;SDS011;38537;47.226;39.702;2023-04-06T11:00:54;6.45;;;3.45;;
52650;SDS011;38537;47.226;39.702;2023-04-06T11:03:26;6.60;;;4.00;;
52650;SDS011;38537;47.226;39.702;2023-04-06T11:05:54;5.97;;;3.40;;
52650;SDS011;38537;47.226;39.702;2023-04-06T11:08:22;9.02;;;4.10;;
52650;SDS011;38537;47.226;39.702;2023-04-06T11:10:50;7.28;;;4.03;;
52650;SDS011;38537;47.226;39.702;2023-04-06T11:13:17;10.98;;;4.22;;
52650;SDS011;38537;47.226;39.702;2023-04-06T11:15:45;6.15;;;3.67;;
52650;SDS011;38537;47.226;39.702;2023-04-06T11:18:12;4.05;;;2.67;;
52650;SDS011;38537;47.226;39.702;2023-04-06T11:20:48;5.10;;;2.65;;
52650;SDS011;38537;47.226;39.702;2023-04-06T11:23:22;4.38;;;2.70;;
52650;SDS011;38537;47.226;39.702;2023-04-06T11:25:52;4.43;;;2.20;;
52650;SDS011;38537;47.226;39.702;2023-04-06T11:28:19;4.32;;;2.70;;
52650;SDS011;38537;47.226;39.702;2023-04-06T11:30:47;6.70;;;3.38;;
52650;SDS011;38537;47.226;39.702;2023-04-06T11:33:21;4.95;;;2.80;;
52650;SDS011;38537;47.226;39.702;2023-04-06T11:38:18;3.90;;;2.80;;
52650;SDS011;38537;47.226;39.702;2023-04-06T11:40:46;5.13;;;3.05;;
52650;SDS011;38537;47.226;39.702;2023-04-06T11:43:30;8.65;;;3.30;;
52650;SDS011;38537;47.226;39.702;2023-04-06T11:46:03;9.13;;;3.33;;
52650;SDS011;38537;47.226;39.702;2023-04-06T11:48:31;6.30;;;3.00;;
52650;SDS011;38537;47.226;39.702;2023-04-06T11:50:58;4.85;;;2.90;;
52650;SDS011;38537;47.226;39.702;2023-04-06T11:53:28;4.32;;;2.63;;
52650;SDS011;38537;47.226;39.702;2023-04-06T11:55:56;6.25;;;2.92;;
52650;SDS011;38537;47.226;39.702;2023-04-06T11:58:23;8.07;;;3.15;;
52650;SDS011;38537;47.226;39.702;2023-04-06T12:00:51;7.95;;;3.65;;
52650;SDS011;38537;47.226;39.702;2023-04-06T12:03:18;4.95;;;2.92;;
52650;SDS011;38537;47.226;39.702;2023-04-06T12:05:45;5.70;;;2.58;;
52650;SDS011;38537;47.226;39.702;2023-04-06T12:08:12;4.40;;;2.25;;
52650;SDS011;38537;47.226;39.702;2023-04-06T12:10:39;12.93;;;3.00;;
52650;SDS011;38537;47.226;39.702;2023-04-06T12:13:07;4.97;;;2.67;;
52650;SDS011;38537;47.226;39.702;2023-04-06T12:15:34;4.63;;;2.65;;
52650;SDS011;38537;47.226;39.702;2023-04-06T12:18:02;6.05;;;3.03;;
52650;SDS011;38537;47.226;39.702;2023-04-06T12:20:29;7.15;;;2.90;;
52650;SDS011;38537;47.226;39.702;2023-04-06T12:22:58;9.38;;;2.97;;
52650;SDS011;38537;47.226;39.702;2023-04-06T12:25:27;4.22;;;2.90;;
52650;SDS011;38537;47.226;39.702;2023-04-06T12:27:56;11.20;;;2.90;;
52650;SDS011;38537;47.226;39.702;2023-04-06T12:30:24;4.45;;;2.60;;
52650;SDS011;38537;47.226;39.702;2023-04-06T12:32:51;3.88;;;2.28;;
52650;SDS011;38537;47.226;39.702;2023-04-06T12:35:19;3.38;;;2.60;;
52650;SDS011;38537;47.226;39.702;2023-04-06T12:37:47;4.78;;;2.72;;
52650;SDS011;38537;47.226;39.702;2023-04-06T12:40:14;6.72;;;2.53;;
52650;SDS011;38537;47.226;39.702;2023-04-06T12:42:42;5.38;;;2.72;;
52650;SDS011;38537;47.226;39.702;2023-04-06T12:45:09;5.38;;;3.03;;
52650;SDS011;38537;47.226;39.702;2023-04-06T12:47:37;4.78;;;2.58;;
52650;SDS011;38537;47.226;39.702;2023-04-06T12:50:05;4.38;;;2.30;;
52650;SDS011;38537;47.226;39.702;2023-04-06T12:52:33;4.20;;;2.70;;
52650;SDS011;38537;47.226;39.702;2023-04-06T12:55:05;6.75;;;2.83;;
52650;SDS011;38537;47.226;39.702;2023-04-06T12:57:32;7.68;;;2.88;;
52650;SDS011;38537;47.226;39.702;2023-04-06T13:00:00;5.53;;;2.40;;
52650;SDS011;38537;47.226;39.702;2023-04-06T13:02:30;6.03;;;2.50;;
52650;SDS011;38537;47.226;39.702;2023-04-06T13:04:57;4.43;;;2.30;;
52650;SDS011;38537;47.226;39.702;2023-04-06T13:07:25;9.65;;;2.40;;
52650;SDS011;38537;47.226;39.702;2023-04-06T13:09:52;7.03;;;2.70;;
52650;SDS011;38537;47.226;39.702;2023-04-06T13:12:20;6.85;;;2.55;;
52650;SDS011;38537;47.226;39.702;2023-04-06T13:14:47;6.22;;;2.70;;
52650;SDS011;38537;47.226;39.702;2023-04-06T13:17:17;4.22;;;2.67;;
52650;SDS011;38537;47.226;39.702;2023-04-06T13:19:44;3.55;;;2.33;;
52650;SDS011;38537;47.226;39.702;2023-04-06T13:22:12;4.47;;;2.60;;
52650;SDS011;38537;47.226;39.702;2023-04-06T13:24:39;5.30;;;2.35;;
52650;SDS011;38537;47.226;39.702;2023-04-06T13:27:06;3.60;;;2.30;;
52650;SDS011;38537;47.226;39.702;2023-04-06T13:29:34;7.68;;;2.67;;
52650;SDS011;38537;47.226;39.702;2023-04-06T13:32:01;5.22;;;2.38;;
52650;SDS011;38537;47.226;39.702;2023-04-06T13:34:31;5.40;;;3.00;;
52650;SDS011;38537;47.226;39.702;2023-04-06T13:36:59;8.50;;;3.00;;
52650;SDS011;38537;47.226;39.702;2023-04-06T13:39:26;6.20;;;3.20;;
52650;SDS011;38537;47.226;39.702;2023-04-06T13:41:54;6.63;;;2.90;;
52650;SDS011;38537;47.226;39.702;2023-04-06T13:44:22;6.65;;;2.88;;
52650;SDS011;38537;47.226;39.702;2023-04-06T13:46:50;5.40;;;3.00;;
52650;SDS011;38537;47.226;39.702;2023-04-06T13:49:17;6.85;;;3.47;;
52650;SDS011;38537;47.226;39.702;2023-04-06T13:51:45;10.10;;;3.10;;
52650;SDS011;38537;47.226;39.702;2023-04-06T13:54:12;7.82;;;3.60;;
52650;SDS011;38537;47.226;39.702;2023-04-06T13:56:39;7.35;;;3.22;;
52650;SDS011;38537;47.226;39.702;2023-04-06T13:59:07;6.00;;;3.17;;
52650;SDS011;38537;47.226;39.702;2023-04-06T14:01:34;8.07;;;3.63;;
52650;SDS011;38537;47.226;39.702;2023-04-06T14:04:01;9.00;;;3.42;;
52650;SDS011;38537;47.226;39.702;2023-04-06T14:06:28;7.45;;;4.00;;
52650;SDS011;38537;47.226;39.702;2023-04-06T14:08:58;6.78;;;3.50;;
52650;SDS011;38537;47.226;39.702;2023-04-06T14:11:26;6.47;;;3.88;;
52650;SDS011;38537;47.226;39.702;2023-04-06T14:13:53;6.80;;;4.43;;
52650;SDS011;38537;47.226;39.702;2023-04-06T14:16:24;9.57;;;4.97;;
52650;SDS011;38537;47.226;39.702;2023-04-06T14:18:51;10.23;;;4.78;;
52650;SDS011;38537;47.226;39.702;2023-04-06T14:21:18;9.05;;;4.60;;
52650;SDS011;38537;47.226;39.702;2023-04-06T14:23:46;8.65;;;5.15;;
52650;SDS011;38537;47.226;39.702;2023-04-06T14:26:13;9.00;;;4.90;;
52650;SDS011;38537;47.226;39.702;2023-04-06T14:28:41;10.13;;;4.55;;
52650;SDS011;38537;47.226;39.702;2023-04-06T14:31:10;7.35;;;4.63;;
52650;SDS011;38537;47.226;39.702;2023-04-06T14:33:39;7.95;;;4.50;;
52650;SDS011;38537;47.226;39.702;2023-04-06T14:36:08;6.40;;;4.30;;
52650;SDS011;38537;47.226;39.702;2023-04-06T14:38:36;12.02;;;5.07;;
52650;SDS011;38537;47.226;39.702;2023-04-06T14:41:03;8.70;;;4.32;;
52650;SDS011;38537;47.226;39.702;2023-04-06T14:43:30;9.77;;;5.03;;
52650;SDS011;38537;47.226;39.702;2023-04-06T14:46:01;14.30;;;6.00;;
52650;SDS011;38537;47.226;39.702;2023-04-06T14:48:29;9.60;;;6.40;;
52650;SDS011;38537;47.226;39.702;2023-04-06T14:50:56;9.93;;;6.03;;
52650;SDS011;38537;47.226;39.702;2023-04-06T14:53:24;9.77;;;6.32;;
52650;SDS011;38537;47.226;39.702;2023-04-06T14:55:52;10.20;;;6.50;;